Time;durP1;ratioP1;P1;durP2;ratioP2;P2;SDS_P1;SDS_P2;PMS_P1;PMS_P2;Temp;Humidity;BMP_temperature;BMP_pressure;BME280_temperature;BME280_humidity;BME280_pressure;Samples;Min_cycle;Max_cycle;Signal;HPM_P1;HPM_P2
2022/06/05 00:00:21;;;;;;;10.63;5.18;;;;;;;19.10;61.01;101624.19;5033014;28;20132;-47
2022/06/05 00:03:17;;;;;;;9.38;4.85;;;;;;;19.14;61.07;101630.72;5026861;28;20062;-47
2022/06/05 00:06:10;;;;;;;7.82;4.50;;;;;;;19.23;60.79;101616.22;5030618;28;20408;-46
2022/06/05 00:09:00;;;;;;;11.60;5.57;;;;;;;19.18;60.62;101608.03;5030199;28;20065;-47
2022/06/05 00:12:16;;;;;;;9.00;5.22;;;;;;;19.20;60.68;101614.09;5028245;28;20045;-47
2022/06/05 00:15:04;;;;;;;9.07;5.32;;;;;;;19.19;60.93;101620.72;5021627;28;20068;-47
2022/06/05 00:17:52;;;;;;;12.18;5.70;;;;;;;19.14;60.92;101608.63;5020876;28;20041;-47
2022/06/05 00:20:44;;;;;;;10.52;5.30;;;;;;;19.03;61.48;101595.34;5031554;28;20052;-48
2022/06/05 00:23:31;;;;;;;9.60;5.40;;;;;;;18.97;61.61;101586.34;5017270;28;20408;-48
2022/06/05 00:26:42;;;;;;;8.27;4.88;;;;;;;19.01;61.44;101592.88;5019330;28;20046;-49
2022/06/05 00:29:39;;;;;;;9.90;5.60;;;;;;;19.02;61.44;101589.00;5030723;28;20046;-45
2022/06/05 00:32:46;;;;;;;11.10;6.15;;;;;;;19.01;61.67;101592.06;5026754;28;20042;-48
2022/06/05 00:35:41;;;;;;;10.35;5.40;;;;;;;18.93;61.91;101585.31;5021575;28;20057;-45
2022/06/05 00:38:44;;;;;;;11.50;6.38;;;;;;;18.87;62.16;101590.09;5015628;28;20053;-47
2022/06/05 00:41:41;;;;;;;10.95;5.55;;;;;;;18.89;62.01;101584.28;5024029;28;20045;-48
2022/06/05 00:44:37;;;;;;;9.73;5.10;;;;;;;18.86;62.26;101579.38;5027324;28;20046;-49
2022/06/05 00:47:28;;;;;;;10.82;5.78;;;;;;;18.87;62.24;101567.22;5014098;28;20046;-48
2022/06/05 00:50:22;;;;;;;11.60;5.80;;;;;;;18.81;62.31;101573.94;5027752;28;20128;-47
2022/06/05 00:53:11;;;;;;;10.25;5.65;;;;;;;18.81;62.51;101576.69;5027734;28;20046;-47
2022/06/05 00:55:58;;;;;;;10.13;5.82;;;;;;;18.73;62.68;101567.97;5027418;28;20056;-46
2022/06/05 00:58:46;;;;;;;14.80;5.68;;;;;;;18.68;62.88;101568.06;5018221;28;20049;-47
2022/06/05 01:01:34;;;;;;;9.95;5.40;;;;;;;18.66;63.03;101563.97;5023214;28;20041;-47
2022/06/05 01:04:21;;;;;;;14.55;6.13;;;;;;;18.68;63.01;101559.78;5006363;28;20047;-47
2022/06/05 01:07:09;;;;;;;10.75;6.20;;;;;;;18.70;62.86;101567.78;5027714;28;20053;-46
2022/06/05 01:09:57;;;;;;;10.55;5.40;;;;;;;18.62;63.09;101563.78;5017748;28;20050;-47
2022/06/05 01:13:16;;;;;;;8.63;5.05;;;;;;;18.66;62.92;101556.50;5019868;28;20045;-46
2022/06/05 01:16:14;;;;;;;10.15;5.30;;;;;;;18.67;62.57;101560.91;5008401;28;20049;-47
2022/06/05 01:19:20;;;;;;;8.75;5.50;;;;;;;18.61;62.85;101567.66;5012263;28;20427;-47
2022/06/05 01:22:25;;;;;;;8.27;5.53;;;;;;;18.55;63.19;101557.03;5032105;28;20057;-48
2022/06/05 01:25:30;;;;;;;;;;;;;;;18.51;63.32;101559.56;5020043;28;20519;-47
2022/06/05 01:28:21;;;;;;;11.00;6.00;;;;;;;18.48;63.24;101557.41;5032940;28;19921;-46
2022/06/05 01:31:18;;;;;;;8.73;5.43;;;;;;;18.52;63.25;101547.41;5019578;28;20045;-47
2022/06/05 01:34:27;;;;;;;9.43;5.90;;;;;;;18.45;63.19;101541.47;5016593;28;20053;-47
2022/06/05 01:37:26;;;;;;;10.63;6.38;;;;;;;18.41;63.35;101541.25;5017877;28;20057;-53
2022/06/05 01:40:18;;;;;;;10.60;5.63;;;;;;;18.41;63.16;101534.91;5032671;28;20048;-48
2022/06/05 01:43:12;;;;;;;10.02;6.13;;;;;;;18.35;63.50;101525.94;5030489;28;20045;-50
2022/06/05 01:46:18;;;;;;;8.82;5.35;;;;;;;18.28;63.49;101531.81;5015761;28;20076;-48
2022/06/05 01:49:18;;;;;;;9.13;5.72;;;;;;;18.21;63.28;101525.06;5025115;28;20045;-48
2022/06/05 01:52:14;;;;;;;9.93;5.38;;;;;;;18.25;63.18;101526.09;5022509;28;20034;-47
2022/06/05 01:55:09;;;;;;;10.40;5.78;;;;;;;18.26;62.93;101527.75;5028330;28;20048;-47
2022/06/05 01:58:01;;;;;;;9.90;5.78;;;;;;;18.26;62.91;101534.06;5028856;28;20053;-47
2022/06/05 02:00:54;;;;;;;8.68;5.00;;;;;;;18.24;62.73;101528.03;5019757;28;20049;-50
2022/06/05 02:03:47;;;;;;;7.78;4.90;;;;;;;18.28;62.70;101525.50;5032034;28;20060;-47
2022/06/05 02:06:48;;;;;;;8.35;4.95;;;;;;;18.29;62.69;101532.63;5028124;28;20042;-48
2022/06/05 02:09:51;;;;;;;10.73;5.57;;;;;;;18.31;62.55;101535.91;5024215;28;20409;-50
2022/06/05 02:12:38;;;;;;;12.40;5.40;;;;;;;18.39;62.24;101543.50;5018591;28;20046;-48
2022/06/05 02:15:27;;;;;;;11.32;5.35;;;;;;;18.43;61.79;101518.88;5014896;28;20061;-48
2022/06/05 02:18:15;;;;;;;9.07;5.55;;;;;;;18.40;61.87;101511.19;5028293;28;20050;-47
2022/06/05 02:21:04;;;;;;;8.27;5.07;;;;;;;18.39;61.94;101506.81;5030909;28;20576;-48
2022/06/05 02:23:35;;;;;;;10.13;5.60;;;;;;;18.40;61.82;101501.00;5014753;28;20412;-48
2022/06/05 02:26:23;;;;;;;10.32;5.53;;;;;;;18.41;62.00;101491.59;5031752;28;20041;-46
2022/06/05 02:29:23;;;;;;;9.73;5.30;;;;;;;18.35;61.83;101489.22;5029678;28;20053;-46
2022/06/05 02:32:28;;;;;;;9.20;5.78;;;;;;;18.29;61.83;101481.03;5025494;28;20071;-47
2022/06/05 02:35:45;;;;;;;8.27;5.25;;;;;;;18.09;62.92;101467.63;5019789;28;20462;-48
2022/06/05 02:38:48;;;;;;;8.07;5.00;;;;;;;18.04;63.19;101449.22;5017136;28;20050;-47
2022/06/05 02:41:58;;;;;;;11.10;5.55;;;;;;;17.96;63.51;101449.91;5013511;28;20041;-47
2022/06/05 02:45:05;;;;;;;9.35;5.38;;;;;;;17.91;64.07;101451.94;5013374;28;20037;-48
2022/06/05 02:48:19;;;;;;;10.40;5.50;;;;;;;17.92;64.06;101439.78;5032378;28;20064;-49
2022/06/05 02:51:13;;;;;;;9.88;5.63;;;;;;;17.83;64.25;101437.72;5030095;28;20484;-48
2022/06/05 02:54:01;;;;;;;8.82;5.28;;;;;;;17.78;64.67;101436.97;5029620;28;20057;-45
2022/06/05 02:56:48;;;;;;;12.75;5.90;;;;;;;17.79;64.31;101425.63;5027616;28;20049;-44
2022/06/05 02:59:36;;;;;;;12.02;6.18;;;;;;;17.76;64.69;101434.50;5023851;28;20041;-43
2022/06/05 03:05:29;;;;;;;11.65;6.53;;;;;;;17.60;65.38;101427.63;5027006;28;20056;-48
2022/06/05 03:08:19;;;;;;;9.77;5.72;;;;;;;17.66;65.35;101424.47;5034454;28;20488;-48
2022/06/05 03:11:06;;;;;;;11.95;6.10;;;;;;;17.62;65.43;101420.69;5026907;28;20046;-47
2022/06/05 03:13:54;;;;;;;10.18;5.70;;;;;;;17.64;65.59;101425.91;5022341;28;20049;-45
2022/06/05 03:16:42;;;;;;;10.50;6.15;;;;;;;17.74;65.24;101428.47;5022433;28;20052;-46
2022/06/05 03:19:30;;;;;;;10.00;5.80;;;;;;;17.72;65.36;101430.72;5026383;28;20385;-48
2022/06/05 03:22:18;;;;;;;11.30;6.45;;;;;;;17.70;65.73;101419.16;5029166;28;20488;-48
2022/06/05 03:25:06;;;;;;;9.57;6.13;;;;;;;17.68;65.93;101418.69;5032827;28;20045;-46
2022/06/05 03:27:55;;;;;;;14.73;6.35;;;;;;;17.66;65.87;101416.22;5033878;28;20523;-47
2022/06/05 03:30:43;;;;;;;12.30;6.30;;;;;;;17.64;66.31;101407.44;5024907;28;20050;-49
2022/06/05 03:33:31;;;;;;;10.88;6.18;;;;;;;17.65;66.16;101402.72;5021195;28;20104;-44
2022/06/05 03:36:19;;;;;;;9.75;6.57;;;;;;;17.63;66.30;101394.78;5029067;28;20046;-46
2022/06/05 03:39:06;;;;;;;11.40;6.18;;;;;;;17.68;66.28;101393.88;5033595;28;20105;-43
2022/06/05 03:41:54;;;;;;;8.93;5.80;;;;;;;17.63;66.37;101389.28;5020633;28;20048;-44
2022/06/05 03:44:42;;;;;;;9.70;5.72;;;;;;;17.67;66.34;101392.22;5029380;28;20049;-45
2022/06/05 03:47:30;;;;;;;11.73;6.38;;;;;;;17.64;66.26;101390.06;5026232;28;20408;-45
2022/06/05 03:50:18;;;;;;;11.10;6.43;;;;;;;17.49;66.77;101395.84;5019212;28;20045;-45
2022/06/05 03:53:07;;;;;;;10.93;6.15;;;;;;;17.41;67.50;101395.41;5033343;28;20049;-48
2022/06/05 03:55:54;;;;;;;14.07;7.07;;;;;;;17.46;67.34;101395.34;5025825;28;20054;-48
2022/06/05 03:58:42;;;;;;;12.07;6.95;;;;;;;17.49;67.13;101398.63;5030656;28;20033;-46
2022/06/05 04:01:30;;;;;;;9.63;6.40;;;;;;;17.48;67.18;101402.47;5016713;28;20081;-44
2022/06/05 04:04:17;;;;;;;12.50;6.20;;;;;;;17.56;66.84;101399.84;5012632;28;20530;-44
2022/06/05 04:07:05;;;;;;;9.88;6.50;;;;;;;17.60;66.80;101409.13;5032837;28;20069;-44
2022/06/05 04:09:50;;;;;;;13.98;7.65;;;;;;;17.55;66.77;101409.22;5027665;28;20145;-48
2022/06/05 04:12:38;;;;;;;10.48;5.90;;;;;;;17.40;67.32;101402.03;5019722;28;20144;-44
2022/06/05 04:15:25;;;;;;;12.18;6.72;;;;;;;17.41;67.28;101397.34;5033233;28;20049;-44
2022/06/05 04:18:13;;;;;;;12.15;7.00;;;;;;;17.38;67.77;101397.94;5031300;28;20049;-44
2022/06/05 04:21:08;;;;;;;11.30;6.43;;;;;;;17.33;68.09;101401.59;5022514;28;20408;-45
2022/06/05 04:23:56;;;;;;;10.82;6.50;;;;;;;17.31;67.86;101392.81;5033382;28;20049;-47
2022/06/05 04:26:44;;;;;;;13.02;7.25;;;;;;;17.31;67.83;101392.81;5032349;28;20045;-47
2022/06/05 04:29:33;;;;;;;12.50;6.35;;;;;;;17.22;68.36;101387.19;5028388;28;20439;-49
2022/06/05 04:32:21;;;;;;;13.90;7.68;;;;;;;17.12;69.10;101387.31;5027783;28;20124;-49
2022/06/05 04:35:09;;;;;;;15.80;6.25;;;;;;;17.17;68.72;101380.91;5033509;28;20049;-47
2022/06/05 04:37:56;;;;;;;10.52;6.80;;;;;;;17.26;68.53;101379.13;5030342;28;20526;-46
2022/06/05 04:40:45;;;;;;;12.20;6.68;;;;;;;17.26;68.46;101376.38;5019535;28;20054;-49
2022/06/05 04:43:33;;;;;;;10.00;6.10;;;;;;;17.28;68.43;101368.63;5021745;28;20046;-51
2022/06/05 04:46:22;;;;;;;11.82;6.72;;;;;;;17.30;68.47;101376.59;5032690;28;20045;-50
2022/06/05 04:49:11;;;;;;;11.07;6.43;;;;;;;17.33;68.48;101378.75;5021091;28;20033;-51
2022/06/05 04:51:58;;;;;;;11.63;6.57;;;;;;;17.22;68.67;101376.16;5028203;28;20037;-49
2022/06/05 04:54:46;;;;;;;13.35;7.60;;;;;;;17.20;68.81;101369.31;5028958;28;20038;-52
2022/06/05 04:57:35;;;;;;;10.95;7.10;;;;;;;17.20;68.97;101363.81;5025538;28;20042;-50
2022/06/05 05:00:23;;;;;;;12.05;6.40;;;;;;;17.24;68.91;101373.94;5027500;28;20041;-51
2022/06/05 05:03:11;;;;;;;11.07;7.05;;;;;;;17.21;68.79;101373.69;5028414;28;20061;-48
2022/06/05 05:05:58;;;;;;;12.95;7.68;;;;;;;17.19;69.62;101368.47;5023231;28;20496;-49
2022/06/05 05:08:46;;;;;;;13.40;7.35;;;;;;;17.11;69.89;101371.09;5020259;28;20054;-50
2022/06/05 05:11:35;;;;;;;15.57;7.18;;;;;;;17.06;70.10;101369.25;5036354;28;20053;-50
2022/06/05 05:14:22;;;;;;;10.27;6.50;;;;;;;17.10;70.18;101364.78;5022400;28;20044;-51
2022/06/05 05:17:10;;;;;;;11.88;7.03;;;;;;;17.09;69.99;101367.81;5032291;28;20049;-52
2022/06/05 05:19:58;;;;;;;14.77;7.65;;;;;;;17.09;70.42;101362.31;5028345;28;20076;-48
2022/06/05 05:22:46;;;;;;;12.20;7.50;;;;;;;17.10;70.33;101370.28;5027528;28;20125;-48
2022/06/05 05:25:34;;;;;;;11.15;7.10;;;;;;;17.14;70.09;101376.00;5019490;28;20048;-51
2022/06/05 05:28:22;;;;;;;10.73;6.47;;;;;;;17.15;70.12;101383.13;5030001;28;20042;-50
2022/06/05 05:31:17;;;;;;;12.18;7.20;;;;;;;17.19;69.91;101385.00;5034901;28;20052;-48
2022/06/05 05:34:05;;;;;;;15.32;7.38;;;;;;;17.15;70.47;101391.41;5027746;28;20049;-49
2022/06/05 05:36:53;;;;;;;11.38;7.07;;;;;;;17.18;70.26;101379.81;5034003;28;20077;-52
2022/06/05 05:42:47;;;;;;;11.10;7.28;;;;;;;17.22;70.01;101376.16;5035536;28;20049;-51
2022/06/05 05:45:34;;;;;;;12.43;7.72;;;;;;;17.25;69.95;101374.75;5034211;28;20057;-52
2022/06/05 05:48:22;;;;;;;13.35;7.32;;;;;;;17.23;69.89;101369.53;5024502;28;20046;-50
2022/06/05 05:51:14;;;;;;;13.75;7.50;;;;;;;17.27;69.97;101367.00;5025942;28;20045;-47
2022/06/05 05:54:03;;;;;;;10.70;6.20;;;;;;;17.24;69.91;101367.56;5022359;28;20408;-48
2022/06/05 05:56:51;;;;;;;13.77;7.25;;;;;;;17.31;69.68;101373.53;5022851;28;20050;-49
2022/06/05 05:59:39;;;;;;;11.43;6.15;;;;;;;17.34;69.67;101369.34;5035667;28;20049;-47
2022/06/05 06:02:27;;;;;;;10.95;7.05;;;;;;;17.36;69.10;101365.19;5028335;28;20045;-48
2022/06/05 06:05:16;;;;;;;11.02;6.93;;;;;;;17.33;69.53;101368.53;5016622;28;20049;-48
2022/06/05 06:08:04;;;;;;;12.32;7.00;;;;;;;17.31;69.37;101365.25;5030115;28;20034;-51
2022/06/05 06:10:52;;;;;;;10.90;6.35;;;;;;;17.32;69.69;101358.66;5020518;28;20081;-47
2022/06/05 06:13:39;;;;;;;11.60;6.72;;;;;;;17.34;69.36;101348.16;5034593;28;20057;-48
2022/06/05 06:16:28;;;;;;;13.18;6.85;;;;;;;17.37;69.09;101353.06;5025779;28;20045;-48
2022/06/05 06:19:15;;;;;;;11.02;6.38;;;;;;;17.39;69.05;101348.06;5033310;28;20041;-47
2022/06/05 06:22:04;;;;;;;14.38;6.97;;;;;;;17.42;69.15;101350.22;5027446;28;20058;-48
2022/06/05 06:24:52;;;;;;;9.43;5.85;;;;;;;17.39;69.29;101341.72;5014228;28;20053;-48
2022/06/05 06:27:40;;;;;;;10.60;6.68;;;;;;;17.43;69.07;101338.06;5018672;28;20045;-45
2022/06/05 06:30:35;;;;;;;11.57;6.75;;;;;;;17.40;68.91;101330.41;5034403;28;20045;-49
2022/06/05 06:33:22;;;;;;;12.52;6.55;;;;;;;17.41;68.88;101334.81;5016173;28;20069;-46
2022/06/05 06:36:11;;;;;;;11.20;7.03;;;;;;;17.44;68.72;101331.44;5034735;28;20040;-46
2022/06/05 06:39:19;;;;;;;11.60;6.78;;;;;;;17.48;68.76;101319.81;5034443;28;20045;-48
2022/06/05 06:42:07;;;;;;;10.48;6.40;;;;;;;17.51;68.41;101319.19;5026312;28;20050;-53
2022/06/05 06:44:56;;;;;;;10.25;6.82;;;;;;;17.52;68.51;101318.09;5029582;28;20052;-48
2022/06/05 06:47:43;;;;;;;13.00;5.90;;;;;;;17.55;68.37;101310.03;5010361;28;20038;-48
2022/06/05 06:50:31;;;;;;;8.75;5.72;;;;;;;17.61;68.66;101305.25;5034639;28;20042;-50
2022/06/05 06:53:19;;;;;;;9.70;6.43;;;;;;;17.68;68.45;101295.47;5026772;28;20053;-51
2022/06/05 06:56:12;;;;;;;11.73;7.35;;;;;;;17.72;68.18;101298.41;5026487;28;20386;-43
2022/06/05 06:59:01;;;;;;;12.23;7.75;;;;;;;17.68;68.58;101286.41;5018357;28;20489;-44
2022/06/05 07:01:48;;;;;;;13.63;7.72;;;;;;;17.71;68.95;101288.53;5027928;28;20041;-47
2022/06/05 07:04:21;;;;;;;11.23;7.75;;;;;;;17.74;68.63;101276.88;5021085;28;20057;-50
2022/06/05 07:07:09;;;;;;;10.30;7.32;;;;;;;17.78;68.60;101275.16;5031402;28;20467;-49
2022/06/05 07:09:56;;;;;;;13.75;7.57;;;;;;;17.82;68.44;101265.19;5034958;28;20059;-51
2022/06/05 07:12:44;;;;;;;10.15;6.75;;;;;;;17.86;68.47;101260.69;5015093;28;20042;-53
2022/06/05 07:15:34;;;;;;;10.93;6.97;;;;;;;17.91;68.53;101279.06;5015812;28;20046;-53
2022/06/05 07:18:22;;;;;;;13.95;7.65;;;;;;;17.95;68.96;101266.31;5018739;28;20057;-50
2022/06/05 07:21:12;;;;;;;9.25;6.30;;;;;;;18.00;68.67;101251.59;5014362;28;20049;-47
2022/06/05 07:24:00;;;;;;;16.38;6.80;;;;;;;18.03;68.83;101242.72;5029064;28;20057;-47
2022/06/05 07:26:48;;;;;;;11.60;7.40;;;;;;;18.06;68.90;101242.09;5024609;28;20050;-50
2022/06/05 07:29:36;;;;;;;10.70;6.70;;;;;;;18.09;68.87;101230.47;5018720;28;20425;-50
2022/06/05 07:32:24;;;;;;;10.15;6.50;;;;;;;18.15;68.84;101228.41;5025979;28;20060;-50
2022/06/05 07:35:12;;;;;;;11.77;6.72;;;;;;;18.19;69.38;101233.00;5022809;28;20045;-49
2022/06/05 07:37:59;;;;;;;12.90;6.90;;;;;;;18.21;68.98;101227.97;5014898;28;20057;-51
2022/06/05 07:40:57;;;;;;;11.00;7.35;;;;;;;18.26;68.85;101230.63;5014555;28;20457;-47
2022/06/05 07:43:45;;;;;;;10.93;6.90;;;;;;;18.31;68.82;101226.94;4998678;28;20074;-47
2022/06/05 07:46:35;;;;;;;11.32;6.60;;;;;;;18.37;68.80;101216.59;5025830;28;20042;-47
2022/06/05 07:49:22;;;;;;;10.93;6.75;;;;;;;18.39;69.27;101208.81;5018691;28;20104;-48
2022/06/05 07:55:25;;;;;;;14.95;7.10;;;;;;;18.49;68.94;101205.81;5027036;28;20057;-46
2022/06/05 07:58:13;;;;;;;10.90;6.15;;;;;;;18.53;69.40;101201.31;5025141;28;20124;-47
2022/06/05 08:01:01;;;;;;;13.55;5.60;;;;;;;18.58;69.24;101200.38;5015898;28;20054;-47
2022/06/05 08:03:48;;;;;;;9.90;6.13;;;;;;;18.63;69.04;101194.75;5016702;28;20432;-47
2022/06/05 08:06:36;;;;;;;10.98;6.13;;;;;;;18.69;69.18;101199.00;5012652;28;20041;-47
2022/06/05 08:09:24;;;;;;;11.15;5.60;;;;;;;18.73;68.83;101195.28;5014287;28;20065;-47
2022/06/05 08:12:14;;;;;;;10.15;6.80;;;;;;;18.79;68.63;101197.97;5014083;28;20045;-48
2022/06/05 08:15:12;;;;;;;11.13;7.30;;;;;;;18.82;68.75;101192.63;5017295;28;20046;-50
2022/06/05 08:18:00;;;;;;;10.45;7.10;;;;;;;18.90;69.20;101183.56;5013277;28;20512;-49
2022/06/05 08:20:49;;;;;;;11.00;7.05;;;;;;;18.97;69.35;101172.09;5013525;28;20053;-47
2022/06/05 08:23:24;;;;;;;9.93;6.70;;;;;;;19.04;69.18;101175.22;5011844;28;20528;-47
2022/06/05 08:26:13;;;;;;;12.57;7.55;;;;;;;19.12;68.92;101174.47;5020014;28;20041;-45
2022/06/05 08:29:01;;;;;;;13.55;6.72;;;;;;;19.20;68.82;101181.16;5013875;28;20075;-44
2022/06/05 08:31:49;;;;;;;14.52;7.13;;;;;;;19.25;69.03;101182.97;5012808;28;20081;-45
2022/06/05 08:34:37;;;;;;;13.20;8.15;;;;;;;19.30;69.01;101185.59;5014121;28;20116;-48
2022/06/05 08:44:05;;;;;;;12.32;7.05;;;;;;;19.46;68.97;101177.66;5009800;28;20489;-46
2022/06/05 08:47:18;;;;;;;11.57;7.30;;;;;;;19.50;69.71;101165.66;5012751;28;20046;-47
2022/06/05 08:50:22;;;;;;;10.82;7.20;;;;;;;19.62;68.50;101170.56;5016726;28;20057;-45
2022/06/05 08:53:56;;;;;;;11.38;7.55;;;;;;;19.67;68.44;101166.84;5028518;28;20128;-47
2022/06/05 08:56:49;;;;;;;11.30;7.60;;;;;;;19.68;69.22;101174.06;5029310;28;20151;-47
2022/06/05 08:59:43;;;;;;;23.00;8.60;;;;;;;19.70;67.99;101166.22;5029260;28;20049;-48
2022/06/05 09:02:56;;;;;;;13.23;7.05;;;;;;;19.69;68.75;101176.47;5017081;28;20046;-50
2022/06/05 09:05:46;;;;;;;14.20;7.80;;;;;;;19.72;68.54;101180.56;5019530;28;20041;-48
2022/06/05 09:08:42;;;;;;;18.98;8.02;;;;;;;19.73;68.30;101171.13;5018033;28;20042;-47
2022/06/05 09:11:27;;;;;;;16.52;8.00;;;;;;;19.73;68.94;101183.00;5022915;28;20058;-49
2022/06/05 09:14:38;;;;;;;19.45;8.75;;;;;;;19.76;69.86;101187.06;5023220;28;20052;-51
2022/06/05 09:17:26;;;;;;;13.07;8.60;;;;;;;19.79;69.33;101183.66;5026425;28;20038;-53
2022/06/05 09:20:14;;;;;;;13.50;7.97;;;;;;;19.81;69.67;101177.81;5021455;28;20050;-50
2022/06/05 09:23:06;;;;;;;17.90;8.05;;;;;;;19.84;69.89;101180.75;5019183;28;20527;-50
2022/06/05 09:26:07;;;;;;;10.95;8.13;;;;;;;19.85;69.60;101178.81;5031314;28;20054;-44
2022/06/05 09:29:24;;;;;;;19.70;8.30;;;;;;;19.84;69.02;101177.97;5016960;28;20050;-47
2022/06/05 09:32:36;;;;;;;12.27;8.05;;;;;;;19.85;69.61;101176.06;5025010;28;20050;-47
2022/06/05 09:35:49;;;;;;;15.35;7.90;;;;;;;19.84;69.51;101172.44;5023329;28;20518;-51
2022/06/05 09:38:54;;;;;;;16.08;7.90;;;;;;;19.83;69.61;101165.28;5017359;28;20093;-49
2022/06/05 09:41:58;;;;;;;13.07;7.93;;;;;;;19.81;69.53;101172.28;5019238;28;20053;-49
2022/06/05 09:44:57;;;;;;;12.95;8.05;;;;;;;19.80;70.42;101165.94;5003659;28;20041;-50
2022/06/05 09:47:54;;;;;;;11.50;8.27;;;;;;;19.80;70.36;101160.41;5027908;28;20046;-51
2022/06/05 09:50:41;;;;;;;14.32;8.70;;;;;;;19.80;70.84;101149.38;5027473;28;20045;-51
2022/06/05 09:53:33;;;;;;;13.90;7.85;;;;;;;19.82;70.50;101151.78;5032323;28;20045;-48
2022/06/05 09:56:23;;;;;;;14.15;7.70;;;;;;;19.81;70.40;101141.88;5026228;28;20048;-48
2022/06/05 09:59:10;;;;;;;16.90;8.35;;;;;;;19.80;70.25;101143.84;5020349;28;20057;-45
2022/06/05 10:02:00;;;;;;;14.07;7.78;;;;;;;19.79;70.73;101137.50;5031138;28;20061;-47
2022/06/05 10:04:49;;;;;;;10.50;8.40;;;;;;;19.79;70.89;101129.19;5026131;28;20081;-48
2022/06/05 10:08:04;;;;;;;13.85;8.95;;;;;;;19.82;71.30;101130.50;5005009;28;20041;-48
2022/06/05 10:10:56;;;;;;;12.95;8.32;;;;;;;19.86;70.72;101131.47;5033569;28;20049;-49
2022/06/05 10:14:28;;;;;;;12.73;8.38;;;;;;;19.87;70.70;101130.34;5027342;28;20145;-48
2022/06/05 10:17:24;;;;;;;10.73;7.55;;;;;;;19.88;71.03;101122.84;5032219;28;20064;-49
2022/06/05 10:20:13;;;;;;;12.23;8.95;;;;;;;19.89;71.54;101122.53;5035424;28;20100;-49
2022/06/05 10:23:23;;;;;;;13.43;8.23;;;;;;;19.88;70.80;101118.13;5033143;28;20045;-48
2022/06/05 10:26:31;;;;;;;14.32;9.05;;;;;;;19.90;71.11;101117.81;5028719;28;20046;-49
2022/06/05 10:29:20;;;;;;;12.23;8.38;;;;;;;19.90;71.08;101110.31;5024369;28;20409;-49
2022/06/05 10:32:36;;;;;;;16.40;8.55;;;;;;;19.92;70.93;101110.00;5026959;28;20045;-49
2022/06/05 10:35:36;;;;;;;11.68;8.48;;;;;;;19.91;71.23;101103.66;5028027;28;20493;-47
2022/06/05 10:38:52;;;;;;;13.48;8.55;;;;;;;19.92;70.79;101107.25;5030913;28;20045;-50
2022/06/05 10:41:47;;;;;;;13.27;8.48;;;;;;;19.93;72.30;101117.97;5032273;28;20049;-45
2022/06/05 10:45:00;;;;;;;12.45;8.90;;;;;;;19.91;73.75;101111.94;5028105;28;20045;-47
2022/06/05 10:48:16;;;;;;;13.18;7.72;;;;;;;19.90;74.91;101113.09;5021389;28;20054;-47
2022/06/05 10:51:09;;;;;;;;;;;;;;;19.89;77.59;101122.53;5025042;28;20523;-48
2022/06/05 10:54:38;;;;;;;13.40;8.30;;;;;;;19.89;75.89;101105.94;5011425;28;19928;-48
2022/06/05 10:57:32;;;;;;;14.27;9.07;;;;;;;19.86;77.73;101108.53;5024657;28;20443;-48
2022/06/05 11:00:24;;;;;;;14.55;9.52;;;;;;;19.83;78.55;101112.75;5024165;28;20046;-49
2022/06/05 11:03:30;;;;;;;13.27;8.70;;;;;;;19.80;78.08;101105.13;5032558;28;20038;-50
2022/06/05 11:06:55;;;;;;;15.38;8.77;;;;;;;19.77;77.53;101106.59;5018378;28;20115;-47
2022/06/05 11:09:47;;;;;;;11.82;8.45;;;;;;;19.75;77.63;101099.75;5024520;28;20045;-46
2022/06/05 11:16:32;;;;;;;12.15;8.73;;;;;;;19.72;77.99;101094.84;5027867;28;20057;-50
2022/06/05 11:19:34;;;;;;;14.60;10.02;;;;;;;19.74;78.50;101096.16;5027113;28;20046;-48
2022/06/05 11:22:23;;;;;;;13.93;10.10;;;;;;;19.75;78.18;101081.19;5031134;28;20111;-44
2022/06/05 11:25:42;;;;;;;13.43;9.85;;;;;;;19.73;78.01;101086.25;5011169;28;20054;-47
2022/06/05 11:29:12;;;;;;;15.25;10.50;;;;;;;19.72;78.50;101076.34;5021535;28;20045;-47
2022/06/05 11:32:19;;;;;;;14.55;10.18;;;;;;;19.72;79.33;101075.50;5015292;28;20050;-48
2022/06/05 11:35:26;;;;;;;13.57;10.52;;;;;;;19.72;80.53;101081.03;5016824;28;20401;-48
2022/06/05 11:38:34;;;;;;;23.33;11.43;;;;;;;19.72;83.03;101075.50;5019786;28;20057;-47
2022/06/05 11:42:05;;;;;;;15.50;11.88;;;;;;;19.70;84.71;101088.81;5020364;28;20041;-49
2022/06/05 11:44:56;;;;;;;19.30;11.95;;;;;;;19.64;87.27;101084.56;5026913;28;20049;-50
2022/06/05 11:47:58;;;;;;;15.68;9.77;;;;;;;19.59;87.82;101082.78;5033036;28;20056;-47
2022/06/05 11:51:31;;;;;;;16.08;11.00;;;;;;;19.53;91.35;101084.88;5013161;28;20046;-49
2022/06/05 11:54:44;;;;;;;13.00;8.93;;;;;;;19.42;92.52;101083.56;4997377;28;20056;-48
2022/06/05 11:58:09;;;;;;;14.85;10.93;;;;;;;19.35;98.87;101080.44;5013086;28;20045;-47
2022/06/05 12:01:02;;;;;;;17.05;10.82;;;;;;;19.22;99.92;101073.91;5021152;28;20482;-50
2022/06/05 12:04:10;;;;;;;16.10;10.43;;;;;;;19.16;100.00;101072.41;5029892;28;20049;-48
2022/06/05 12:07:00;;;;;;;17.10;9.85;;;;;;;19.10;100.00;101070.94;5033477;28;20045;-48
2022/06/05 12:09:50;;;;;;;14.38;10.40;;;;;;;19.03;100.00;101065.88;5024263;28;20042;-48
2022/06/05 12:12:56;;;;;;;15.02;10.20;;;;;;;18.94;100.00;101046.50;5015557;28;20061;-48
2022/06/05 12:15:58;;;;;;;13.25;9.18;;;;;;;18.96;100.00;101054.50;5033265;28;20045;-50
2022/06/05 12:18:50;;;;;;;15.57;10.20;;;;;;;18.96;100.00;101046.19;5024123;28;20045;-46
2022/06/05 12:22:04;;;;;;;14.05;10.48;;;;;;;18.96;100.00;101042.63;5012292;28;20468;-49
2022/06/05 12:25:14;;;;;;;13.13;9.68;;;;;;;18.98;100.00;101043.09;5022436;28;20064;-48
2022/06/05 12:28:11;;;;;;;13.50;10.23;;;;;;;18.97;100.00;101036.78;5030962;28;20107;-50
2022/06/05 12:31:23;;;;;;;13.82;9.68;;;;;;;18.97;100.00;101044.25;5025874;28;20041;-48
2022/06/05 12:34:16;;;;;;;17.38;10.32;;;;;;;18.96;100.00;101035.16;5027061;28;20500;-50
2022/06/05 12:37:25;;;;;;;14.00;9.75;;;;;;;18.95;100.00;101030.75;5023371;28;20062;-50
2022/06/05 12:40:22;;;;;;;16.60;10.57;;;;;;;18.94;100.00;101029.94;5031371;28;20045;-50
2022/06/05 12:43:20;;;;;;;13.35;10.23;;;;;;;18.91;100.00;101027.03;5017494;28;20038;-49
2022/06/05 12:46:37;;;;;;;14.65;9.32;;;;;;;18.97;100.00;101027.69;5032630;28;20111;-48
2022/06/05 12:49:37;;;;;;;15.85;10.15;;;;;;;19.05;100.00;101024.97;5018139;28;20501;-51
2022/06/05 12:52:36;;;;;;;14.68;10.07;;;;;;;19.08;100.00;101023.50;5020860;28;20045;-47
2022/06/05 12:55:59;;;;;;;12.30;9.93;;;;;;;19.08;100.00;101029.84;5029775;28;20057;-47
2022/06/05 12:58:52;;;;;;;12.98;10.30;;;;;;;19.07;100.00;101019.94;5020934;28;20527;-48
2022/06/05 13:01:50;;;;;;;14.77;10.40;;;;;;;19.01;100.00;101015.69;5015429;28;20046;-50
2022/06/05 13:04:44;;;;;;;13.40;9.77;;;;;;;18.97;100.00;101011.91;5015810;28;20042;-44
2022/06/05 13:07:41;;;;;;;11.38;9.52;;;;;;;18.94;100.00;101002.34;5018151;28;20485;-49
2022/06/05 13:10:41;;;;;;;15.35;9.20;;;;;;;18.92;100.00;101001.84;5021793;28;20386;-50
2022/06/05 13:13:37;;;;;;;12.05;9.38;;;;;;;18.92;100.00;100996.31;5023189;28;20049;-52
2022/06/05 13:16:37;;;;;;;13.05;9.93;;;;;;;18.93;100.00;100995.19;5021912;28;20045;-46
2022/06/05 13:19:27;;;;;;;13.13;9.82;;;;;;;18.92;100.00;100990.78;5029825;28;20045;-49
2022/06/05 13:22:26;;;;;;;11.50;8.93;;;;;;;18.91;100.00;100989.16;5034041;28;20041;-51
2022/06/05 13:25:56;;;;;;;12.60;9.30;;;;;;;18.92;100.00;100985.25;5037501;28;20404;-49
2022/06/05 13:28:47;;;;;;;15.93;11.05;;;;;;;18.93;100.00;100989.66;5024094;28;20046;-49
2022/06/05 13:31:45;;;;;;;14.43;10.88;;;;;;;18.92;100.00;100976.19;5024544;28;20046;-50
2022/06/05 13:34:55;;;;;;;11.82;10.00;;;;;;;18.92;100.00;100976.19;5033344;28;20072;-48
2022/06/05 13:38:08;;;;;;;13.75;9.68;;;;;;;18.93;100.00;100973.09;5014843;28;20046;-48
2022/06/05 13:41:49;;;;;;;12.18;9.63;;;;;;;18.96;100.00;100970.84;5031189;28;20052;-50
2022/06/05 13:44:24;;;;;;;14.50;11.00;;;;;;;18.97;100.00;100962.22;5015454;28;20069;-49